Time;durP1;ratioP1;P1;durP2;ratioP2;P2;SDS_P1;SDS_P2;PMS_P1;PMS_P2;Temp;Humidity;BMP_temperature;BMP_pressure;BME280_temperature;BME280_humidity;BME280_pressure;Samples;Min_cycle;Max_cycle;Signal;HPM_P1;HPM_P2
2022/10/15 05:28:07;;;;;;;;;;;21.60;99.90;;;;;;5684733;23;19925;-83
2022/10/15 05:30:34;;;;;;;;;;;21.60;99.90;;;;;;5004971;28;19976;-84
2022/10/15 05:33:01;;;;;;;;;;;21.60;99.90;;;;;;5004141;28;19965;-84
2022/10/15 05:35:27;;;;;;;;;;;21.60;99.90;;;;;;5001692;28;19925;-84
2022/10/15 05:37:54;;;;;;;;;;;21.60;99.90;;;;;;4998377;28;19984;-85
2022/10/15 05:40:21;;;;;;;;;;;21.60;99.90;;;;;;4999251;28;20012;-85
2022/10/15 05:42:50;;;;;;;;;;;21.60;99.90;;;;;;5001049;28;19973;-85
2022/10/15 05:45:18;;;;;;;;;;;21.60;99.90;;;;;;4998238;28;19957;-85
2022/10/15 05:47:45;;;;;;;;;;;21.60;99.90;;;;;;4999094;28;20021;-85
2022/10/15 05:50:12;;;;;;;;;;;21.60;99.90;;;;;;4999115;28;19969;-85
2022/10/15 05:52:38;;;;;;;;;;;21.60;99.90;;;;;;4998549;28;19968;-85
2022/10/15 05:55:06;;;;;;;;;;;21.60;99.90;;;;;;4997247;28;19993;-85
2022/10/15 05:57:32;;;;;;;;;;;21.60;99.90;;;;;;4997359;28;19964;-85
2022/10/15 05:59:59;;;;;;;;;;;21.60;99.90;;;;;;4996212;28;20012;-85
2022/10/15 06:02:27;;;;;;;;;;;21.60;99.90;;;;;;4999569;28;19968;-84
2022/10/15 06:04:54;;;;;;;;;;;21.60;99.90;;;;;;4998704;28;19968;-85
2022/10/15 06:07:20;;;;;;;;;;;21.60;99.90;;;;;;4999204;28;20409;-84
2022/10/15 06:09:47;;;;;;;;;;;21.60;99.90;;;;;;5000412;28;20448;-84
2022/10/15 06:12:13;;;;;;;;;;;21.60;99.90;;;;;;4997242;28;19957;-84
2022/10/15 06:14:40;;;;;;;;;;;21.60;99.90;;;;;;4996016;28;20024;-84
2022/10/15 06:17:07;;;;;;;;;;;21.60;99.90;;;;;;4995636;28;20012;-85
2022/10/15 06:19:35;;;;;;;;;;;21.60;99.90;;;;;;4995345;28;20468;-85
2022/10/15 06:22:01;;;;;;;;;;;21.60;99.90;;;;;;4997429;28;19972;-85
2022/10/15 06:24:28;;;;;;;;;;;21.60;99.90;;;;;;5001868;28;19968;-83
2022/10/15 06:26:55;;;;;;;;;;;21.60;99.90;;;;;;4998813;28;19972;-83
2022/10/15 06:29:21;;;;;;;;;;;21.60;99.90;;;;;;5001200;28;19964;-82
2022/10/15 06:31:48;;;;;;;;;;;21.60;99.90;;;;;;5005663;28;19972;-80
2022/10/15 06:34:15;;;;;;;;;;;21.60;99.90;;;;;;5007633;28;19965;-81
2022/10/15 06:36:43;;;;;;;;;;;21.60;99.90;;;;;;5006471;28;19926;-82
2022/10/15 06:39:09;;;;;;;;;;;21.60;99.90;;;;;;5001579;28;20394;-80
2022/10/15 06:41:36;;;;;;;;;;;21.60;99.90;;;;;;4998496;28;20017;-80
2022/10/15 06:44:03;;;;;;;;;;;21.60;99.90;;;;;;4997474;28;19933;-80
2022/10/15 06:46:29;;;;;;;;;;;21.60;99.90;;;;;;4997293;28;20033;-80
2022/10/15 06:48:56;;;;;;;;;;;21.60;99.90;;;;;;4998212;28;19972;-81
2022/10/15 06:51:23;;;;;;;;;;;21.60;99.90;;;;;;4999006;28;19976;-80
2022/10/15 06:53:51;;;;;;;;;;;21.60;99.90;;;;;;4998665;28;19980;-80
2022/10/15 06:56:18;;;;;;;;;;;21.60;99.90;;;;;;4997334;28;20021;-79
2022/10/15 06:58:44;;;;;;;;;;;21.60;99.90;;;;;;4997992;28;19989;-80
2022/10/15 07:01:11;;;;;;;;;;;21.60;99.90;;;;;;4998738;28;20030;-80
2022/10/15 07:03:38;;;;;;;;;;;21.60;99.90;;;;;;4999090;28;19985;-81
2022/10/15 07:06:06;;;;;;;;;;;21.60;99.90;;;;;;5001843;28;19925;-80
2022/10/15 07:08:33;;;;;;;;;;;21.60;99.90;;;;;;4999364;28;19961;-80
2022/10/15 07:11:02;;;;;;;;;;;21.60;99.90;;;;;;4998744;28;19985;-82
2022/10/15 07:13:29;;;;;;;;;;;21.60;99.90;;;;;;5002259;28;19926;-82
2022/10/15 07:15:56;;;;;;;;;;;21.60;99.90;;;;;;5000526;28;19949;-81
2022/10/15 07:18:23;;;;;;;;;;;21.60;99.90;;;;;;4998682;28;19932;-83
2022/10/15 07:20:49;;;;;;;;;;;21.60;99.90;;;;;;4998916;28;20050;-82
2022/10/15 07:23:16;;;;;;;;;;;21.60;99.90;;;;;;4997919;28;20356;-82
2022/10/15 07:25:43;;;;;;;;;;;21.60;99.90;;;;;;5002695;28;19925;-83
2022/10/15 07:28:11;;;;;;;;;;;21.70;99.90;;;;;;5000368;28;20337;-83
2022/10/15 07:30:37;;;;;;;;;;;21.70;99.90;;;;;;4999086;28;20017;-82
2022/10/15 07:33:04;;;;;;;;;;;21.70;99.90;;;;;;4998498;28;20012;-81
2022/10/15 07:35:31;;;;;;;;;;;21.70;99.90;;;;;;4998209;28;19968;-82
2022/10/15 07:38:00;;;;;;;;;;;21.80;99.90;;;;;;4998307;28;20021;-82
2022/10/15 07:40:26;;;;;;;;;;;21.70;99.90;;;;;;4995359;28;20346;-81
2022/10/15 07:42:53;;;;;;;;;;;21.80;99.90;;;;;;4996515;28;19969;-80
2022/10/15 07:45:22;;;;;;;;;;;21.80;99.90;;;;;;4996986;28;19932;-79
2022/10/15 07:47:49;;;;;;;;;;;21.80;99.90;;;;;;4999727;28;19969;-80
2022/10/15 07:50:15;;;;;;;;;;;21.80;99.90;;;;;;4997234;28;19973;-82
2022/10/15 07:52:42;;;;;;;;;;;21.80;99.90;;;;;;4999340;28;19986;-82
2022/10/15 07:55:09;;;;;;;;;;;21.80;99.90;;;;;;5000616;28;19932;-81
2022/10/15 07:57:36;;;;;;;;;;;21.80;99.90;;;;;;5000309;28;20362;-81
2022/10/15 08:00:02;;;;;;;;;;;21.80;99.90;;;;;;5001583;28;19969;-83
2022/10/15 08:02:31;;;;;;;;;;;21.80;99.90;;;;;;5000221;28;19972;-80
2022/10/15 08:04:57;;;;;;;;;;;21.80;99.90;;;;;;5001506;28;20021;-81
2022/10/15 08:07:24;;;;;;;;;;;21.80;99.90;;;;;;5000477;28;19961;-82
2022/10/15 08:09:51;;;;;;;;;;;21.80;99.90;;;;;;5001326;28;19976;-81
2022/10/15 08:12:17;;;;;;;;;;;21.80;99.90;;;;;;5001539;28;20301;-81
2022/10/15 08:14:44;;;;;;;;;;;21.80;99.90;;;;;;5000754;28;19961;-84
2022/10/15 08:17:11;;;;;;;;;;;21.80;99.90;;;;;;4998482;28;20016;-84
2022/10/15 08:19:39;;;;;;;;;;;21.80;99.90;;;;;;5001095;28;19981;-82
2022/10/15 08:22:05;;;;;;;;;;;21.80;99.90;;;;;;4999178;28;19986;-87
2022/10/15 08:24:32;;;;;;;;;;;21.80;99.90;;;;;;4998718;28;19984;-82
2022/10/15 08:26:59;;;;;;;;;;;21.80;99.90;;;;;;5000177;28;19926;-83
2022/10/15 08:29:26;;;;;;;;;;;21.80;99.90;;;;;;4999015;28;20021;-83
2022/10/15 08:31:52;;;;;;;;;;;21.80;99.90;;;;;;4998810;28;20451;-82
2022/10/15 08:34:19;;;;;;;;;;;21.80;99.90;;;;;;4998127;28;20355;-82
2022/10/15 08:36:47;;;;;;;;;;;21.80;99.90;;;;;;4998704;28;19949;-81
2022/10/15 08:39:14;;;;;;;;;;;21.80;99.90;;;;;;5000084;28;20381;-81
2022/10/15 08:41:42;;;;;;;;;;;21.80;99.90;;;;;;4997366;28;19968;-85
2022/10/15 08:44:13;;;;;;;;;;;21.80;99.90;;;;;;4997140;28;19969;-85
2022/10/15 08:46:42;;;;;;;;;;;21.80;99.90;;;;;;4997563;28;19969;-85
2022/10/15 08:49:14;;;;;;;;;;;21.80;99.90;;;;;;4997102;28;20024;-86
2022/10/15 08:51:42;;;;;;;;;;;21.80;99.90;;;;;;4999612;28;19981;-86
2022/10/15 08:54:14;;;;;;;;;;;21.80;99.90;;;;;;5004829;28;19933;-82
2022/10/15 08:56:44;;;;;;;;;;;21.80;99.90;;;;;;5005029;28;19926;-82
2022/10/15 08:59:17;;;;;;;;;;;21.90;99.90;;;;;;5005447;28;19968;-82
2022/10/15 09:01:50;;;;;;;;;;;21.80;99.90;;;;;;5004102;28;19957;-88
2022/10/15 09:04:21;;;;;;;;;;;21.80;99.90;;;;;;5003675;28;19925;-87
2022/10/15 09:06:52;;;;;;;;;;;21.80;99.90;;;;;;5004306;28;19925;-89
2022/10/15 09:09:24;;;;;;;;;;;21.80;99.90;;;;;;5004204;28;19925;-89
2022/10/15 09:11:58;;;;;;;;;;;21.80;99.90;;;;;;5006384;28;19950;-87
2022/10/15 09:14:30;;;;;;;;;;;21.80;99.90;;;;;;5007127;28;19925;-86
2022/10/15 09:17:00;;;;;;;;;;;21.80;99.90;;;;;;5008225;28;20374;-86
2022/10/15 09:19:28;;;;;;;;;;;21.80;99.90;;;;;;5003135;28;19933;-86
2022/10/15 09:21:55;;;;;;;;;;;21.80;99.90;;;;;;5001422;28;19994;-84
2022/10/15 09:24:24;;;;;;;;;;;21.80;99.90;;;;;;4997785;28;20016;-85
2022/10/15 09:26:54;;;;;;;;;;;21.80;99.90;;;;;;4998691;28;19965;-84
2022/10/15 09:29:24;;;;;;;;;;;21.80;99.90;;;;;;4998674;28;19972;-84
2022/10/15 09:31:55;;;;;;;;;;;21.70;99.90;;;;;;4999640;28;20008;-84
2022/10/15 09:34:25;;;;;;;;;;;21.80;99.90;;;;;;5000593;28;20395;-84
2022/10/15 09:36:54;;;;;;;;;;;21.80;99.90;;;;;;5001209;28;20004;-83
2022/10/15 09:39:38;;;;;;;;;;;21.80;99.90;;;;;;5000535;28;20368;-84
2022/10/15 09:42:11;;;;;;;;;;;21.90;99.90;;;;;;4999114;28;20017;-84
2022/10/15 09:44:39;;;;;;;;;;;21.80;99.90;;;;;;4999836;28;19984;-82
2022/10/15 09:47:15;;;;;;;;;;;21.90;99.90;;;;;;5000199;28;20465;-82
2022/10/15 09:49:41;;;;;;;;;;;21.80;99.90;;;;;;5000183;28;20450;-78
2022/10/15 09:52:11;;;;;;;;;;;21.90;99.90;;;;;;4999632;28;19932;-78
2022/10/15 09:54:44;;;;;;;;;;;21.90;99.90;;;;;;4999920;28;19980;-79
2022/10/15 09:57:12;;;;;;;;;;;21.90;99.90;;;;;;4998958;28;19925;-79
2022/10/15 09:59:51;;;;;;;;;;;21.90;99.90;;;;;;4998003;28;19969;-79
2022/10/15 10:02:19;;;;;;;;;;;21.90;99.90;;;;;;4998547;28;20024;-80
2022/10/15 10:04:45;;;;;;;;;;;21.90;99.90;;;;;;4997824;28;20284;-79
2022/10/15 10:07:27;;;;;;;;;;;22.00;99.90;;;;;;4997811;28;20008;-81
2022/10/15 10:09:56;;;;;;;;;;;22.00;99.90;;;;;;4995731;28;20351;-77
2022/10/15 10:12:25;;;;;;;;;;;22.00;99.90;;;;;;4996855;28;19973;-78
2022/10/15 10:14:54;;;;;;;;;;;22.00;99.90;;;;;;5000037;28;19926;-79
2022/10/15 10:17:21;;;;;;;;;;;22.10;99.90;;;;;;4999267;28;20446;-78
2022/10/15 10:20:03;;;;;;;;;;;22.00;99.90;;;;;;4999040;28;20024;-79
2022/10/15 10:22:30;;;;;;;;;;;22.00;99.90;;;;;;4999841;28;20012;-79
2022/10/15 10:24:58;;;;;;;;;;;22.00;99.90;;;;;;4997863;28;20022;-79
2022/10/15 10:27:27;;;;;;;;;;;22.10;99.90;;;;;;4998086;28;19997;-78
2022/10/15 10:29:59;;;;;;;;;;;22.10;99.90;;;;;;4999986;28;19961;-78
2022/10/15 10:32:28;;;;;;;;;;;22.00;99.90;;;;;;5000572;28;20016;-80
2022/10/15 10:34:55;;;;;;;;;;;22.00;99.90;;;;;;5000573;28;19925;-80
2022/10/15 10:37:23;;;;;;;;;;;22.00;99.90;;;;;;4999466;28;19972;-81
2022/10/15 10:39:53;;;;;;;;;;;22.00;99.90;;;;;;5001504;28;20385;-86
2022/10/15 10:42:26;;;;;;;;;;;22.00;99.90;;;;;;4998501;28;19965;-83
2022/10/15 10:44:53;;;;;;;;;;;22.00;99.90;;;;;;4999506;28;20267;-82
2022/10/15 10:47:20;;;;;;;;;;;22.00;99.90;;;;;;4999907;28;19969;-83
2022/10/15 10:49:48;;;;;;;;;;;22.00;99.90;;;;;;5001789;28;19968;-82
2022/10/15 10:52:22;;;;;;;;;;;22.00;99.90;;;;;;4998902;28;19979;-78
2022/10/15 10:54:52;;;;;;;;;;;22.00;99.90;;;;;;4998807;28;19961;-78
2022/10/15 10:57:22;;;;;;;;;;;22.00;99.90;;;;;;4998146;28;19972;-79
2022/10/15 10:59:52;;;;;;;;;;;22.00;99.90;;;;;;4998219;28;19926;-78
2022/10/15 11:02:19;;;;;;;;;;;22.00;99.90;;;;;;4997709;28;19989;-81
2022/10/15 11:04:46;;;;;;;;;;;22.00;99.90;;;;;;4999724;28;19925;-82
2022/10/15 11:07:17;;;;;;;;;;;22.00;99.90;;;;;;4999706;28;19977;-81
2022/10/15 11:09:48;;;;;;;;;;;22.00;99.90;;;;;;4999362;28;19937;-81
2022/10/15 11:12:27;;;;;;;;;;;22.00;99.90;;;;;;4996233;28;19973;-78
2022/10/15 11:14:59;;;;;;;;;;;22.00;99.90;;;;;;4995929;28;19936;-77
2022/10/15 11:17:31;;;;;;;;;;;22.00;99.90;;;;;;4994574;28;19926;-78
2022/10/15 11:20:03;;;;;;;;;;;22.00;99.90;;;;;;4994111;28;20380;-78
2022/10/15 11:22:35;;;;;;;;;;;22.00;99.90;;;;;;4994636;28;20407;-79
2022/10/15 11:25:08;;;;;;;;;;;22.00;99.90;;;;;;4996653;28;20032;-79
2022/10/15 11:27:48;;;;;;;;;;;22.00;99.90;;;;;;5003825;28;19988;-82
2022/10/15 11:30:25;;;;;;;;;;;22.00;99.90;;;;;;5003687;28;19968;-83
2022/10/15 11:32:57;;;;;;;;;;;22.00;99.90;;;;;;5002586;28;19925;-82
2022/10/15 11:35:31;;;;;;;;;;;22.00;99.90;;;;;;5007273;28;19933;-83
2022/10/15 11:38:03;;;;;;;;;;;22.00;99.90;;;;;;5009820;28;19926;-83
2022/10/15 11:40:33;;;;;;;;;;;22.00;99.90;;;;;;5003304;28;19988;-82
2022/10/15 11:43:03;;;;;;;;;;;22.00;99.90;;;;;;5002491;28;19949;-82
2022/10/15 11:45:47;;;;;;;;;;;22.00;99.90;;;;;;5001850;28;19962;-82
2022/10/15 11:48:22;;;;;;;;;;;22.00;99.90;;;;;;5003309;28;20262;-81
2022/10/15 11:50:50;;;;;;;;;;;22.00;99.90;;;;;;5003619;28;20356;-81
2022/10/15 11:53:38;;;;;;;;;;;22.00;99.90;;;;;;5003208;28;20040;-81
2022/10/15 11:56:06;;;;;;;;;;;21.90;99.90;;;;;;5002100;28;19930;-82
2022/10/15 11:58:35;;;;;;;;;;;22.00;99.90;;;;;;5005264;28;19925;-82
2022/10/15 12:01:06;;;;;;;;;;;22.00;99.90;;;;;;5004576;28;19925;-83
2022/10/15 12:03:40;;;;;;;;;;;22.00;99.90;;;;;;5005536;28;19933;-82
2022/10/15 12:06:09;;;;;;;;;;;22.00;99.90;;;;;;5006558;28;20488;-81
2022/10/15 12:08:38;;;;;;;;;;;22.00;99.90;;;;;;5009221;28;19925;-81
2022/10/15 12:11:15;;;;;;;;;;;22.00;99.90;;;;;;5009042;28;19937;-81
2022/10/15 12:13:46;;;;;;;;;;;22.00;99.90;;;;;;5007244;28;19926;-83
2022/10/15 12:16:16;;;;;;;;;;;22.00;99.90;;;;;;5009886;28;19926;-82
2022/10/15 12:18:47;;;;;;;;;;;22.00;99.90;;;;;;5010735;28;19941;-82
2022/10/15 12:21:38;;;;;;;;;;;22.00;99.90;;;;;;5004400;28;19976;-83
2022/10/15 12:24:09;;;;;;;;;;;22.00;99.90;;;;;;4993679;28;19930;-83
2022/10/15 12:26:36;;;;;;;;;;;22.00;99.90;;;;;;5004681;28;20369;-82
2022/10/15 12:29:19;;;;;;;;;;;22.00;99.90;;;;;;5003935;28;19989;-81
2022/10/15 12:31:48;;;;;;;;;;;22.00;99.90;;;;;;5004167;28;19933;-82
2022/10/15 12:34:27;;;;;;;;;;;22.00;99.90;;;;;;5003175;28;20309;-83
2022/10/15 12:37:01;;;;;;;;;;;22.00;99.90;;;;;;5004112;28;19973;-83
2022/10/15 12:39:29;;;;;;;;;;;22.00;99.90;;;;;;5003913;28;19926;-83
2022/10/15 12:41:56;;;;;;;;;;;22.00;99.90;;;;;;5003864;28;19995;-83
2022/10/15 12:44:25;;;;;;;;;;;22.00;99.90;;;;;;5003460;28;19926;-83
2022/10/15 12:46:52;;;;;;;;;;;22.00;99.90;;;;;;5001300;28;19926;-80
2022/10/15 12:49:37;;;;;;;;;;;22.10;99.90;;;;;;5002431;28;19949;-81
2022/10/15 12:52:31;;;;;;;;;;;22.10;99.90;;;;;;5003336;28;19925;-81
2022/10/15 12:55:15;;;;;;;;;;;22.00;99.90;;;;;;5003883;28;19926;-82
2022/10/15 12:57:52;;;;;;;;;;;22.00;99.90;;;;;;5003102;28;19994;-81
2022/10/15 13:00:29;;;;;;;;;;;22.00;99.90;;;;;;5006905;28;19981;-82
2022/10/15 13:03:00;;;;;;;;;;;22.00;99.90;;;;;;4997638;28;19953;-82
2022/10/15 13:05:27;;;;;;;;;;;22.00;99.90;;;;;;4998258;28;19929;-82
2022/10/15 13:07:57;;;;;;;;;;;22.00;99.90;;;;;;4997847;28;19957;-85
2022/10/15 13:10:27;;;;;;;;;;;22.00;99.90;;;;;;4997696;28;19926;-83
2022/10/15 13:12:56;;;;;;;;;;;22.00;99.90;;;;;;4997716;28;19965;-83
2022/10/15 13:15:23;;;;;;;;;;;22.00;99.90;;;;;;4998104;28;20020;-83
2022/10/15 13:17:50;;;;;;;;;;;22.00;99.90;;;;;;4997770;28;19965;-84
2022/10/15 13:20:28;;;;;;;;;;;22.00;99.90;;;;;;4998603;28;20021;-84
2022/10/15 13:23:06;;;;;;;;;;;22.00;99.90;;;;;;4999181;28;19969;-84
2022/10/15 13:25:33;;;;;;;;;;;22.00;99.90;;;;;;4998689;28;19949;-84
2022/10/15 13:28:01;;;;;;;;;;;22.00;99.90;;;;;;4999221;28;19926;-84
2022/10/15 13:30:27;;;;;;;;;;;22.00;99.90;;;;;;4999940;28;19933;-84
2022/10/15 13:32:55;;;;;;;;;;;21.90;99.90;;;;;;4999492;28;19973;-84
2022/10/15 13:35:24;;;;;;;;;;;21.90;99.90;;;;;;4999048;28;19933;-84
2022/10/15 13:37:52;;;;;;;;;;;21.90;99.90;;;;;;4999380;28;20020;-84
2022/10/15 13:40:21;;;;;;;;;;;21.90;99.90;;;;;;4997856;28;20465;-85
2022/10/15 13:42:58;;;;;;;;;;;21.90;99.90;;;;;;4999122;28;19977;-84
2022/10/15 13:45:24;;;;;;;;;;;21.90;99.90;;;;;;4999378;28;20024;-84
2022/10/15 13:47:52;;;;;;;;;;;21.80;99.90;;;;;;4999144;28;19949;-84
2022/10/15 13:50:20;;;;;;;;;;;21.80;99.90;;;;;;4998820;28;20020;-84
2022/10/15 13:52:49;;;;;;;;;;;21.80;99.90;;;;;;5002513;28;19968;-85
2022/10/15 13:55:17;;;;;;;;;;;21.80;99.90;;;;;;5001155;28;19972;-84
2022/10/15 13:57:46;;;;;;;;;;;21.80;99.90;;;;;;5004975;28;19933;-84
2022/10/15 14:00:23;;;;;;;;;;;21.80;99.90;;;;;;5003967;28;20017;-84
2022/10/15 14:03:05;;;;;;;;;;;21.80;99.90;;;;;;5002797;28;19933;-83
2022/10/15 14:05:32;;;;;;;;;;;21.80;99.90;;;;;;5000152;28;19933;-83
2022/10/15 14:07:58;;;;;;;;;;;21.80;99.90;;;;;;4999804;28;19957;-83
2022/10/15 14:10:25;;;;;;;;;;;21.80;99.90;;;;;;4999952;28;19929;-82
2022/10/15 14:12:53;;;;;;;;;;;21.80;99.90;;;;;;4999546;28;19926;-82
2022/10/15 14:15:38;;;;;;;;;;;21.70;99.90;;;;;;4999416;28;20378;-82
2022/10/15 14:18:05;;;;;;;;;;;21.70;99.90;;;;;;4999117;28;20020;-82
2022/10/15 14:20:32;;;;;;;;;;;21.70;99.90;;;;;;4999602;28;20029;-83
2022/10/15 14:22:59;;;;;;;;;;;21.70;99.90;;;;;;4998705;28;19961;-82
2022/10/15 14:25:26;;;;;;;;;;;21.70;99.90;;;;;;4998670;28;20458;-82
2022/10/15 14:27:54;;;;;;;;;;;21.70;99.90;;;;;;4998975;28;20012;-83
2022/10/15 14:30:24;;;;;;;;;;;21.70;99.90;;;;;;4998143;28;20329;-83
2022/10/15 14:32:51;;;;;;;;;;;21.70;99.90;;;;;;4998750;28;19925;-83
2022/10/15 14:35:25;;;;;;;;;;;21.70;99.90;;;;;;4998255;28;19926;-83
2022/10/15 14:37:59;;;;;;;;;;;21.70;99.90;;;;;;4997871;28;19926;-83
2022/10/15 14:40:25;;;;;;;;;;;21.70;99.90;;;;;;4997874;28;20004;-83
2022/10/15 14:43:03;;;;;;;;;;;21.70;99.90;;;;;;4998427;28;19926;-83
2022/10/15 14:45:31;;;;;;;;;;;21.70;99.90;;;;;;4997925;28;19926;-83
2022/10/15 14:47:58;;;;;;;;;;;21.70;99.90;;;;;;4996701;28;19962;-83
2022/10/15 14:50:26;;;;;;;;;;;21.70;99.90;;;;;;4997077;28;20093;-83
2022/10/15 14:52:54;;;;;;;;;;;21.70;99.90;;;;;;4999966;28;19980;-83
2022/10/15 14:55:27;;;;;;;;;;;21.70;99.90;;;;;;4998479;28;19932;-83
2022/10/15 14:57:55;;;;;;;;;;;21.70;99.90;;;;;;4997546;28;19926;-83
2022/10/15 15:00:24;;;;;;;;;;;21.60;99.90;;;;;;4999702;28;19926;-83
2022/10/15 15:02:51;;;;;;;;;;;21.70;99.90;;;;;;5001751;28;19974;-83
2022/10/15 15:05:20;;;;;;;;;;;21.60;99.90;;;;;;5002019;28;19933;-83
2022/10/15 15:07:47;;;;;;;;;;;21.60;99.90;;;;;;5001075;28;20413;-84
2022/10/15 15:10:14;;;;;;;;;;;21.60;99.90;;;;;;5001387;28;19925;-83
2022/10/15 15:12:42;;;;;;;;;;;21.60;99.90;;;;;;5001224;28;19933;-83
2022/10/15 15:15:13;;;;;;;;;;;21.60;99.90;;;;;;5000574;28;20032;-83
2022/10/15 15:17:42;;;;;;;;;;;21.60;99.90;;;;;;5000806;28;19930;-85
2022/10/15 15:20:09;;;;;;;;;;;21.60;99.90;;;;;;5001124;28;20008;-85
2022/10/15 15:22:37;;;;;;;;;;;21.60;99.90;;;;;;4999918;28;19926;-85
2022/10/15 15:25:07;;;;;;;;;;;21.60;99.90;;;;;;5002241;28;19926;-85
2022/10/15 15:27:36;;;;;;;;;;;21.60;99.90;;;;;;5001905;28;20008;-82
2022/10/15 15:30:03;;;;;;;;;;;21.60;99.90;;;;;;4999329;28;19926;-83
2022/10/15 15:32:30;;;;;;;;;;;21.60;99.90;;;;;;4999738;28;20013;-83
2022/10/15 15:34:59;;;;;;;;;;;21.60;99.90;;;;;;5000312;28;19937;-83
2022/10/15 15:37:28;;;;;;;;;;;21.60;99.90;;;;;;5002060;28;19926;-84
2022/10/15 15:39:55;;;;;;;;;;;21.60;99.90;;;;;;5000789;28;19948;-83
2022/10/15 15:42:24;;;;;;;;;;;21.60;99.90;;;;;;5000394;28;19925;-84
2022/10/15 15:44:51;;;;;;;;;;;21.60;99.90;;;;;;5000216;28;19926;-84
2022/10/15 15:47:18;;;;;;;;;;;21.60;99.90;;;;;;5000417;28;19936;-84
2022/10/15 15:49:45;;;;;;;;;;;21.60;99.90;;;;;;5000444;28;20012;-84
2022/10/15 15:52:15;;;;;;;;;;;21.60;99.90;;;;;;5002181;28;19925;-84
2022/10/15 15:54:44;;;;;;;;;;;21.60;99.90;;;;;;5001425;28;20374;-84
2022/10/15 15:57:10;;;;;;;;;;;21.60;99.90;;;;;;4998802;28;20385;-84
2022/10/15 15:59:37;;;;;;;;;;;21.60;99.90;;;;;;4998421;28;19956;-85
2022/10/15 16:02:04;;;;;;;;;;;21.60;99.90;;;;;;5000668;28;20448;-85
2022/10/15 16:04:31;;;;;;;;;;;21.60;99.90;;;;;;5001744;28;19968;-85
2022/10/15 16:06:57;;;;;;;;;;;21.60;99.90;;;;;;5001116;28;19973;-84
2022/10/15 16:09:26;;;;;;;;;;;21.60;99.90;;;;;;5002701;28;20024;-81
2022/10/15 16:11:53;;;;;;;;;;;21.60;99.90;;;;;;5001189;28;19934;-80
2022/10/15 16:14:20;;;;;;;;;;;21.60;99.90;;;;;;5002211;28;20408;-80
2022/10/15 16:16:46;;;;;;;;;;;21.60;99.90;;;;;;5002001;28;19957;-82
2022/10/15 16:19:13;;;;;;;;;;;21.60;99.90;;;;;;5002179;28;20024;-84
2022/10/15 16:21:40;;;;;;;;;;;21.60;99.90;;;;;;5002789;28;19969;-82
2022/10/15 16:24:06;;;;;;;;;;;21.60;99.90;;;;;;5001566;28;20021;-82
2022/10/15 16:26:34;;;;;;;;;;;21.60;99.90;;;;;;5001533;28;20408;-82
2022/10/15 16:29:01;;;;;;;;;;;21.60;99.90;;;;;;4999910;28;19961;-81
2022/10/15 16:31:30;;;;;;;;;;;21.60;99.90;;;;;;5001722;28;19969;-79
2022/10/15 16:33:57;;;;;;;;;;;21.60;99.90;;;;;;5001137;28;19926;-80
2022/10/15 16:36:24;;;;;;;;;;;21.60;99.90;;;;;;5001683;28;20017;-81
2022/10/15 16:38:50;;;;;;;;;;;21.60;99.90;;;;;;5002287;28;19976;-81
2022/10/15 16:41:18;;;;;;;;;;;21.60;99.90;;;;;;5001215;28;20381;-81
2022/10/15 16:43:47;;;;;;;;;;;21.60;99.90;;;;;;5001707;28;19929;-81
2022/10/15 16:46:14;;;;;;;;;;;21.60;99.90;;;;;;5001091;28;20293;-81
2022/10/15 16:48:41;;;;;;;;;;;21.60;99.90;;;;;;5000960;28;19929;-81
2022/10/15 16:51:09;;;;;;;;;;;21.60;99.90;;;;;;5000640;28;20016;-81
2022/10/15 16:53:36;;;;;;;;;;;21.60;99.90;;;;;;5000978;28;19933;-81
2022/10/15 16:56:06;;;;;;;;;;;21.60;99.90;;;;;;5001084;28;20017;-81
2022/10/15 16:58:33;;;;;;;;;;;21.60;99.90;;;;;;5001025;28;20494;-81
2022/10/15 17:01:01;;;;;;;;;;;21.60;99.90;;;;;;5000633;28;19961;-81
2022/10/15 17:03:29;;;;;;;;;;;21.60;99.90;;;;;;5001134;28;19926;-81
2022/10/15 17:05:56;;;;;;;;;;;21.60;99.90;;;;;;5000974;28;19933;-81
2022/10/15 17:08:23;;;;;;;;;;;21.60;99.90;;;;;;5000706;28;20361;-82
2022/10/15 17:10:50;;;;;;;;;;;21.60;99.90;;;;;;5001647;28;19998;-82
2022/10/15 17:13:16;;;;;;;;;;;21.60;99.90;;;;;;5001618;28;19933;-82
2022/10/15 17:15:43;;;;;;;;;;;21.70;99.90;;;;;;5000979;28;19962;-82
2022/10/15 17:18:11;;;;;;;;;;;21.70;99.90;;;;;;5000797;28;20393;-82
2022/10/15 17:20:42;;;;;;;;;;;21.70;99.90;;;;;;5000122;28;19926;-82
2022/10/15 17:23:09;;;;;;;;;;;21.70;99.90;;;;;;4999810;28;20440;-81
2022/10/15 17:25:36;;;;;;;;;;;21.70;99.90;;;;;;4999728;28;20448;-81
2022/10/15 17:28:02;;;;;;;;;;;21.80;99.90;;;;;;5000348;28;19973;-82
2022/10/15 17:30:30;;;;;;;;;;;21.80;99.90;;;;;;4997759;28;20198;-82
2022/10/15 17:32:56;;;;;;;;;;;21.80;99.90;;;;;;4999671;28;19969;-82
2022/10/15 17:35:25;;;;;;;;;;;21.80;99.90;;;;;;4999706;28;19977;-80
2022/10/15 17:37:51;;;;;;;;;;;21.80;99.90;;;;;;4999862;28;19969;-80
2022/10/15 17:40:18;;;;;;;;;;;21.80;99.90;;;;;;4999588;28;20021;-80
2022/10/15 17:42:44;;;;;;;;;;;21.80;99.90;;;;;;4999451;28;19985;-80
2022/10/15 17:45:12;;;;;;;;;;;21.80;99.90;;;;;;4999787;28;19969;-80
2022/10/15 17:47:38;;;;;;;;;;;21.80;99.90;;;;;;4999734;28;19926;-80
2022/10/15 17:50:06;;;;;;;;;;;21.80;99.90;;;;;;5000010;28;19993;-82
2022/10/15 17:52:34;;;;;;;;;;;21.90;99.90;;;;;;4999995;28;19932;-81
2022/10/15 17:55:01;;;;;;;;;;;21.80;99.90;;;;;;4999811;28;19980;-81
2022/10/15 17:57:27;;;;;;;;;;;21.80;99.90;;;;;;5000291;28;20021;-81
2022/10/15 17:59:54;;;;;;;;;;;21.80;99.90;;;;;;5000253;28;19964;-81
2022/10/15 18:02:20;;;;;;;;;;;21.80;99.90;;;;;;4999817;28;19977;-81
2022/10/15 18:04:47;;;;;;;;;;;21.90;99.90;;;;;;4999532;28;19972;-80
2022/10/15 18:07:16;;;;;;;;;;;21.90;99.90;;;;;;4999361;28;20013;-80
2022/10/15 18:09:44;;;;;;;;;;;21.90;99.90;;;;;;4999536;28;19926;-80
2022/10/15 18:12:11;;;;;;;;;;;21.90;99.90;;;;;;4999908;28;19933;-81
2022/10/15 18:14:38;;;;;;;;;;;21.80;99.90;;;;;;4999199;28;19972;-80
2022/10/15 18:17:05;;;;;;;;;;;21.90;99.90;;;;;;4999432;28;20012;-80
2022/10/15 18:19:31;;;;;;;;;;;21.90;99.90;;;;;;4999369;28;19999;-80
2022/10/15 18:21:58;;;;;;;;;;;21.80;99.90;;;;;;4999114;28;19973;-80
2022/10/15 18:24:25;;;;;;;;;;;21.90;99.90;;;;;;4999372;28;19993;-80
2022/10/15 18:26:53;;;;;;;;;;;21.90;99.90;;;;;;4998825;28;19983;-81
2022/10/15 18:29:21;;;;;;;;;;;21.80;99.90;;;;;;4998587;28;20016;-80
2022/10/15 18:31:47;;;;;;;;;;;21.90;99.90;;;;;;4999321;28;19926;-80
2022/10/15 18:34:14;;;;;;;;;;;21.90;99.90;;;;;;4998447;28;20020;-80
2022/10/15 18:36:42;;;;;;;;;;;21.90;99.90;;;;;;4999549;28;20008;-80
2022/10/15 18:39:09;;;;;;;;;;;21.90;99.90;;;;;;4998676;28;19926;-80
2022/10/15 18:41:37;;;;;;;;;;;21.90;99.90;;;;;;4998852;28;20441;-80
2022/10/15 18:44:06;;;;;;;;;;;21.90;99.90;;;;;;4998824;28;20049;-80
2022/10/15 18:46:33;;;;;;;;;;;21.80;99.90;;;;;;4998926;28;20330;-80
2022/10/15 18:49:00;;;;;;;;;;;21.80;99.90;;;;;;4999220;28;19973;-81
2022/10/15 18:51:27;;;;;;;;;;;21.80;99.90;;;;;;4998942;28;20017;-81
2022/10/15 18:53:54;;;;;;;;;;;21.80;99.90;;;;;;4999098;28;20361;-81
2022/10/15 18:56:21;;;;;;;;;;;21.70;99.90;;;;;;4999703;28;20016;-81
2022/10/15 18:58:48;;;;;;;;;;;21.80;99.90;;;;;;4998945;28;19948;-81
2022/10/15 19:01:24;;;;;;;;;;;21.80;99.90;;;;;;4999133;28;20016;-80
2022/10/15 19:03:51;;;;;;;;;;;21.80;99.90;;;;;;4999139;28;20090;-81
2022/10/15 19:06:18;;;;;;;;;;;21.80;99.90;;;;;;4998744;28;19929;-82
2022/10/15 19:08:44;;;;;;;;;;;21.70;99.90;;;;;;4998974;28;20425;-82
2022/10/15 19:11:11;;;;;;;;;;;21.70;99.90;;;;;;4999833;28;19926;-81
2022/10/15 19:13:38;;;;;;;;;;;21.70;99.90;;;;;;4999119;28;19926;-81
2022/10/15 19:16:05;;;;;;;;;;;21.70;99.90;;;;;;5000383;28;19965;-81
2022/10/15 19:18:35;;;;;;;;;;;21.70;99.90;;;;;;4999754;28;19973;-81
2022/10/15 19:21:01;;;;;;;;;;;21.70;99.90;;;;;;5000196;28;19933;-81
2022/10/15 19:23:28;;;;;;;;;;;21.70;99.90;;;;;;4999481;28;20020;-81
2022/10/15 19:25:56;;;;;;;;;;;21.70;99.90;;;;;;4998705;28;19926;-82
2022/10/15 19:28:23;;;;;;;;;;;21.70;99.90;;;;;;4998247;28;19976;-81
2022/10/15 19:30:56;;;;;;;;;;;21.70;99.90;;;;;;4999041;28;19969;-82
2022/10/15 19:33:23;;;;;;;;;;;21.70;99.90;;;;;;4998758;28;19926;-81
2022/10/15 19:35:51;;;;;;;;;;;21.70;99.90;;;;;;4999348;28;20016;-80
2022/10/15 19:38:18;;;;;;;;;;;21.70;99.90;;;;;;4999158;28;20021;-80
2022/10/15 19:40:45;;;;;;;;;;;21.70;99.90;;;;;;4998642;28;19996;-80
2022/10/15 19:43:12;;;;;;;;;;;21.80;99.90;;;;;;4998593;28;19996;-80
2022/10/15 19:45:39;;;;;;;;;;;21.70;99.90;;;;;;4999660;28;20024;-80
2022/10/15 19:48:06;;;;;;;;;;;21.80;99.90;;;;;;5002487;28;19925;-80
2022/10/15 19:50:35;;;;;;;;;;;21.70;99.90;;;;;;5002612;28;20021;-80
2022/10/15 19:53:04;;;;;;;;;;;21.80;99.90;;;;;;5002390;28;19926;-81